CSUN New Campus Station -PST Time - Most Recent Data on bottom of page




           Date/Time      Avg      Avg      Max     Wind      Avg      Max      Min      Avg      Avg    Total      Avg     Batt
                         Wind     Wind     Wind      Dir     Temp     Temp     Temp       RH      Bar     Rain    Solar     Volt
                      Spd MPH      Dir  Spd MPH   at Max    Deg_F    Deg_F    Deg_F        % Press_mb   Inches     W/m2      Min
--------------------------------------------------------------------------------------------------------------------------------
    12/16/2014 00:00      0.4       65      1.9       63     53.6     54.0     53.2       78     1015     0.00        0     13.5
    12/16/2014 00:15      0.7       66      1.9       93     54.0     54.2     53.8       78     1015     0.00        0     13.5
    12/16/2014 00:30      0.5       81      2.8       98     53.8     54.1     53.7       78     1015     0.00        0     13.5
    12/16/2014 00:45      0.2       67      1.2       53     53.8     53.9     53.6       78     1015     0.00        0     13.5
    12/16/2014 01:00      0.4        9      2.2        5     53.8     54.0     53.6       78     1015     0.00        0     13.5
    12/16/2014 01:15      0.5       17      1.9       45     54.0     54.3     53.8       76     1015     0.00        0     13.5
    12/16/2014 01:30      0.0      359      0.6      347     54.0     54.2     53.6       78     1015     0.00        0     13.5
    12/16/2014 01:45      0.1      103      1.9       92     53.7     53.9     53.3       80     1015     0.00        0     13.5
    12/16/2014 02:00      0.4       47      1.4       51     53.3     53.6     53.0       83     1015     0.00        0     13.5
    12/16/2014 02:15      0.7       43      2.8       49     53.0     53.3     52.8       84     1015     0.01        0     13.5
    12/16/2014 02:30      1.9       43      4.1       65     53.0     53.3     52.8       83     1015     0.00        0     13.5
    12/16/2014 02:45      1.7       24      4.3       19     53.0     53.3     52.8       84     1015     0.01        0     13.5
    12/16/2014 03:00      1.2       46      4.4       40     52.9     53.1     52.6       84     1015     0.01        0     13.5
    12/16/2014 03:15      0.6       12      2.2        9     52.7     53.0     52.5       86     1015     0.00        0     13.5
    12/16/2014 03:30      0.9       44      2.5       60     52.5     52.7     52.2       86     1015     0.00        0     13.5
    12/16/2014 03:45      1.0       38      2.6       29     52.2     52.5     52.0       86     1014     0.00        0     13.5
    12/16/2014 04:00      1.2       41      2.5       40     52.2     52.4     52.0       86     1014     0.00        0     13.5
    12/16/2014 04:15      0.4      346      2.1      352     52.0     52.2     51.8       87     1014     0.00        0     13.5
    12/16/2014 04:30      0.3       61      1.7       17     51.8     52.0     51.5       87     1014     0.01        0     13.5
    12/16/2014 04:45      0.3       52      1.5       57     51.9     52.0     51.6       87     1014     0.00        0     13.5
    12/16/2014 05:00      0.1      358      0.9      345     51.8     52.0     51.6       87     1014     0.00        0     13.5
    12/16/2014 05:15      0.3        4      1.4        3     51.7     51.9     51.6       87     1014     0.00        0     13.5
    12/16/2014 05:30      0.9       58      3.8       55     51.7     51.9     51.5       88     1014     0.00        0     13.5
    12/16/2014 05:45      2.0       61      4.1       69     51.8     52.0     51.6       87     1014     0.00        0     13.5
    12/16/2014 06:00      2.2       77      6.8       78     51.9     52.1     51.7       85     1014     0.00        0     13.5
    12/16/2014 06:15      1.2       66      3.7       86     51.9     52.0     51.6       85     1015     0.00        0     13.5
    12/16/2014 06:30      1.6       40      4.0       52     51.5     51.9     51.3       86     1015     0.01        0     13.5
    12/16/2014 06:45      1.9       38      4.1       37     51.3     51.6     51.1       86     1015     0.00        0     13.5
    12/16/2014 07:00      0.3      120      2.2       89     51.0     51.3     50.8       87     1015     0.00        1     13.5
    12/16/2014 07:15      0.8        6      2.5      347     51.0     51.3     50.8       87     1015     0.00        3     13.5
    12/16/2014 07:30      0.1      263      1.3      255     51.0     51.2     50.8       88     1015     0.00        8     13.5
    12/16/2014 07:45      0.0        0      0.0      258     51.1     51.4     51.0       88     1015     0.02       18     13.5
    12/16/2014 08:00      0.0        0      0.0      204     51.3     51.5     51.1       89     1015     0.00       23     13.5
    12/16/2014 08:15      1.1      357      4.3       10     51.4     51.6     51.1       89     1015     0.00       37     13.5
    12/16/2014 08:30      1.6      353      4.3      342     51.4     51.7     51.2       88     1015     0.01       50     13.5
    12/16/2014 08:45      0.6       14      3.1        6     51.7     52.0     51.4       87     1016     0.00       43     13.5
    12/16/2014 09:00      0.8       31      4.4      350     52.1     52.4     51.8       83     1016     0.00       52     13.5
    12/16/2014 09:15      1.0      116      2.7      108     52.7     53.2     52.1       84     1016     0.00       75     13.5
    12/16/2014 09:30      0.8       68      2.9        0     52.9     53.2     52.5       82     1016     0.00       69     13.5
    12/16/2014 09:45      1.9      350      4.6      322     52.7     53.0     52.4       82     1016     0.01      106     13.5
    12/16/2014 10:00      1.3      350      4.1      352     53.0     53.3     52.6       81     1016     0.00       93     13.5
    12/16/2014 10:15      1.3      355      4.8      349     53.5     53.8     53.0       78     1016     0.00      106     13.5
    12/16/2014 10:30      2.2      346      4.6      326     54.0     54.5     53.6       77     1015     0.00      164     13.4
    12/16/2014 10:45      1.2      354      4.1      352     54.9     55.4     54.4       74     1015     0.00      194     13.4
    12/16/2014 11:00      0.9       65      3.9       74     55.8     56.1     55.3       69     1015     0.00      235     13.4
    12/16/2014 11:15      2.2       72      4.8       86     56.1     56.5     55.7       69     1015     0.00      315     13.4
    12/16/2014 11:30      1.7       54      5.3       46     56.5     57.1     56.1       68     1015     0.00      281     13.4
    12/16/2014 11:45      1.1       70      4.9       58     57.0     57.3     56.4       65     1015     0.00      228     13.4
    12/16/2014 12:00      1.2      104      3.1      102     56.6     56.8     56.4       66     1014     0.00      131     13.4
    12/16/2014 12:15      2.1      136      4.6      150     56.4     56.7     56.0       68     1014     0.00       77     13.4
    12/16/2014 12:30      1.4      151      3.4      135     56.4     56.7     56.0       68     1014     0.00       96     13.4
    12/16/2014 12:45      1.5       28      4.4       43     56.8     57.3     56.4       65     1014     0.00      116     13.4
    12/16/2014 13:00      1.7        2      5.6      336     57.4     57.7     57.1       62     1013     0.00      152     13.4
    12/16/2014 13:15      1.5       50      4.7       60     57.5     57.8     57.2       65     1013     0.00      151     13.4
    12/16/2014 13:30      2.1      105      5.7       93     57.6     57.8     57.3       63     1013     0.00      168     13.4
    12/16/2014 13:45      2.4      152      5.1      169     57.7     57.9     57.4       65     1013     0.00      129     13.4
    12/16/2014 14:00      3.3      153      6.4      166     57.3     57.6     56.8       68     1013     0.00       66     13.4
    12/16/2014 14:15      3.1      132      7.4      159     56.6     57.1     56.2       70     1013     0.00       34     13.4
    12/16/2014 14:30      3.6      120      9.0      130     55.6     56.5     54.6       78     1013     0.00       75     13.4
    12/16/2014 14:45      3.5      105      9.1       94     54.2     54.9     53.5       84     1014     0.00       86     13.4
    12/16/2014 15:00      3.4       98      6.7       92     53.5     53.9     53.3       86     1014     0.00       70     13.4
    12/16/2014 15:15      2.7       80      7.5       93     53.5     53.8     53.2       86     1014     0.00       71     13.4
    12/16/2014 15:30      2.5       61      5.4       32     54.0     54.5     53.6       84     1014     0.00      114     13.4
    12/16/2014 15:45      1.6       61      4.1       75     54.3     54.5     54.0       84     1014     0.00       92     13.4
    12/16/2014 16:00      1.0       15      3.6      324     54.3     54.5     54.0       84     1014     0.00       32     13.4
    12/16/2014 16:15      1.4      350      4.0      344     54.2     54.4     54.0       84     1014     0.00       11     13.4
    12/16/2014 16:30      0.8        4      2.9       23     54.2     54.5     54.0       84     1014     0.00       15     13.4
    12/16/2014 16:45      2.1       59      5.0       47     54.3     54.5     54.1       83     1014     0.00       19     13.4
    12/16/2014 17:00      1.7       62      4.0       30     54.2     54.5     54.0       84     1014     0.00        2     13.4
    12/16/2014 17:15      0.2      199      1.3      159     53.7     54.2     53.4       85     1014     0.00        0     13.4
    12/16/2014 17:30      0.1      292      1.2      293     53.5     53.8     53.3       86     1014     0.00        0     13.4
    12/16/2014 17:45      0.7      294      2.5      288     53.7     53.9     53.4       86     1014     0.00        0     13.5
    12/16/2014 18:00      0.5      305      1.7      259     53.9     54.0     53.6       85     1014     0.00        0     13.5
    12/16/2014 18:15      0.1      251      1.1      261     54.0     54.2     53.8       84     1014     0.00        0     13.4
    12/16/2014 18:30      0.0      280      0.6      279     54.1     54.3     53.9       84     1014     0.00        0     13.4
    12/16/2014 18:45      0.4      312      1.8      341     54.2     54.5     53.9       84     1015     0.00        0     13.4
    12/16/2014 19:00      0.5      343      1.8      342     54.3     54.5     54.0       83     1014     0.00        0     13.4
    12/16/2014 19:15      0.1      345      1.3      346     53.9     54.4     53.4       83     1014     0.00        0     13.5
    12/16/2014 19:30      0.1      339      1.2      332     53.3     53.7     53.0       84     1014     0.00        0     13.5
    12/16/2014 19:45      0.9       27      3.6       40     53.4     53.8     53.0       84     1014     0.00        0     13.5
    12/16/2014 20:00      0.2      257      0.9      259     53.3     53.7     53.0       84     1014     0.00        0     13.5
    12/16/2014 20:15      0.3      252      1.2      252     53.2     53.5     53.0       85     1015     0.00        0     13.5
    12/16/2014 20:30      0.0        0      0.0      227     53.5     53.8     53.2       86     1015     0.01        0     13.5
    12/16/2014 20:45      0.0      327      0.5      328     53.2     53.6     52.8       87     1015     0.00        0     13.5
    12/16/2014 21:00      0.0      110      0.6       90     53.0     53.1     52.7       88     1015     0.00        0     13.5
    12/16/2014 21:15      0.0        0      0.0       88     52.8     53.2     52.6       88     1015     0.00        0     13.5
    12/16/2014 21:30      0.0        0      0.0      274     52.7     53.0     52.4       89     1015     0.00        0     13.5
    12/16/2014 21:45      0.2      309      1.5      314     52.8     53.0     52.5       89     1015     0.00        0     13.5
    12/16/2014 22:00      0.0        0      0.0      275     52.7     52.9     52.5       90     1015     0.00        0     13.5
    12/16/2014 22:15      0.1       88      0.9      101     52.7     53.0     52.5       90     1015     0.00        0     13.5
    12/16/2014 22:30      0.1      265      1.1       75     52.5     53.0     52.2       90     1015     0.00        0     13.5
    12/16/2014 22:45      1.3       70      3.0       36     52.8     53.0     52.5       89     1014     0.00        0     13.5
    12/16/2014 23:00      1.8       78      5.0       76     53.0     53.1     52.8       88     1014     0.00        0     13.5
    12/16/2014 23:15      0.8       69      3.3       83     52.9     53.1     52.8       88     1014     0.00        0     13.5
    12/16/2014 23:30      1.0       87      3.5       56     53.0     53.1     52.8       88     1014     0.00        0     13.5
    12/16/2014 23:45      0.5       97      2.5       66     53.0     53.1     52.7       88     1014     0.00        0     13.5
    12/17/2014 00:00      0.0       92      0.7       90     52.9     53.2     52.7       89     1014     0.00        0     13.5
    12/17/2014 00:15      1.8      179      5.9      189     52.9     53.1     52.7       89     1014     0.04        0     13.5
    12/17/2014 00:30      1.8      167      4.2      196     52.8     53.1     52.5       89     1014     0.06        0     13.5
    12/17/2014 00:45      0.3       13      1.2       35     52.6     52.8     52.4       90     1014     0.01        0     13.5
    12/17/2014 01:00      1.2       51      3.1       60     52.7     52.9     52.5       90     1013     0.00        0     13.5
    12/17/2014 01:15      1.2       66      2.8       49     52.7     52.9     52.5       90     1013     0.00        0     13.5
    12/17/2014 01:30      1.3       93      4.5       95     52.8     53.0     52.6       90     1014     0.01        0     13.5
    12/17/2014 01:45      1.2       51      3.9       76     52.7     52.8     52.5       90     1013     0.00        0     13.5
    12/17/2014 02:00      1.8       48      3.8       29     52.6     52.8     52.4       90     1013     0.02        0     13.5
    12/17/2014 02:15      1.5       55      3.8       65     52.6     52.8     52.4       90     1013     0.00        0     13.5
    12/17/2014 02:30      1.5       85      3.6       70     52.6     52.8     52.4       90     1013     0.00        0     13.5
    12/17/2014 02:45      1.6       86      4.3       70     52.5     52.7     52.3       91     1013     0.01        0     13.5
    12/17/2014 03:00      1.4      272      6.2      301     52.1     52.6     51.7       91     1013     0.09        0     13.5
    12/17/2014 03:15      1.6      140      6.0      103     51.7     52.2     51.3       91     1013     0.08        0     13.5
    12/17/2014 03:30      2.5       74      4.9       51     52.0     52.2     51.8       90     1013     0.00        0     13.5
    12/17/2014 03:45      2.0      353      4.6      346     51.8     52.1     51.1       90     1013     0.00        0     13.5
    12/17/2014 04:00      0.9        2      4.1      354     50.9     51.3     50.6       90     1013     0.00        0     13.5
    12/17/2014 04:15      0.8        9      2.9        6     50.5     50.8     50.3       90     1013     0.00        0     13.5
    12/17/2014 04:30      1.2      315      3.2       50     50.4     50.6     50.1       90     1013     0.00        0     13.5
    12/17/2014 04:45      2.6       59      4.4       40     51.0     51.4     50.6       88     1013     0.00        0     13.5
    12/17/2014 05:00      1.5       11      4.0       10     51.1     51.4     50.8       87     1013     0.00        0     13.5
    12/17/2014 05:15      1.5      352      4.2      335     50.8     51.1     50.6       87     1013     0.00        0     13.5
    12/17/2014 05:30      1.5        5      3.9       55     50.8     51.0     50.5       88     1013     0.00        0     13.5
    12/17/2014 05:45      1.2       23      3.8      334     50.6     50.8     50.3       88     1014     0.00        0     13.5
    12/17/2014 06:00      1.1       11      3.7       10     50.3     50.5     49.9       88     1014     0.00        0     13.5
    12/17/2014 06:15      1.2      346      3.1        3     49.8     50.2     49.5       88     1014     0.00        0     13.5
    12/17/2014 06:30      1.7      343      3.4      342     49.5     49.8     49.3       88     1014     0.00        0     13.6
    12/17/2014 06:45      1.6      337      3.8      339     49.2     49.5     48.8       88     1014     0.00        0     13.5
    12/17/2014 07:00      0.3      293      1.8       24     48.3     49.1     47.6       88     1014     0.00        3     13.6
    12/17/2014 07:15      0.0      260      0.6      260     47.6     47.8     47.2       89     1015     0.00        8     13.6
    12/17/2014 07:30      0.2      285      1.3      260     47.2     47.5     46.9       90     1015     0.00       16     13.6
    12/17/2014 07:45      0.1      281      0.7      293     47.6     47.9     47.3       90     1015     0.00       22     13.6
    12/17/2014 08:00      0.3      282      1.3      251     48.4     49.0     47.5       90     1015     0.00       35     13.6
    12/17/2014 08:15      0.1      178      1.4      219     49.2     49.7     48.8       90     1015     0.00       62     13.6
    12/17/2014 08:30      0.4       46      2.2      255     50.1     50.8     49.5       90     1015     0.00       40     13.5
    12/17/2014 08:45      2.4      198      4.9      190     51.1     51.7     50.7       85     1016     0.00       90     13.5
    12/17/2014 09:00      3.6      189      5.7      197     51.9     52.2     51.5       84     1016     0.00      190     13.5
    12/17/2014 09:15      1.9      219      4.4      200     52.6     53.6     51.7       81     1016     0.00       77     13.5
    12/17/2014 09:30      0.9      172      2.6      225     54.3     55.0     53.5       75     1016     0.00      234     13.4
    12/17/2014 09:45      0.9      200      2.5      170     55.3     55.9     54.4       75     1016     0.00      369     13.4
    12/17/2014 10:00      0.6      244      3.2      213     55.9     56.4     55.3       68     1017     0.00      394     13.4
    12/17/2014 10:15      1.1      163      3.0      118     56.7     57.5     56.2       68     1017     0.00      449     13.3
    12/17/2014 10:30      3.6      186      7.3      195     57.2     57.7     56.3       68     1017     0.00      445     13.3
    12/17/2014 10:45      2.5      183      5.8      188     57.3     58.4     56.1       64     1016     0.00      483     13.3
    12/17/2014 11:00      3.7      175      6.8      168     57.9     58.6     57.4       65     1016     0.00      501     13.3
    12/17/2014 11:15      3.0      177      5.5      174     57.8     58.8     56.9       62     1016     0.00      311     13.3
    12/17/2014 11:30      3.1      197      7.1      193     58.0     58.4     57.6       62     1016     0.00      490     13.3
    12/17/2014 11:45      3.4      219      7.1      181     58.8     59.3     57.9       56     1016     0.00      532     13.3
    12/17/2014 12:00      4.5      185     12.0      187     58.9     59.5     58.1       52     1016     0.00      434     13.3
    12/17/2014 12:15      4.3      172      7.9      161     59.8     60.4     59.0       49     1016     0.00      559     13.3
    12/17/2014 12:30      1.6      152      4.9      122     60.1     60.6     59.6       48     1016     0.00      420     13.3
    12/17/2014 12:45      2.9      253      7.4      203     60.5     60.9     60.1       47     1016     0.00      511     13.3
    12/17/2014 13:00      2.0      266      6.8      255     61.1     61.8     60.3       44     1016     0.00      452     13.2
    12/17/2014 13:15      2.3      260      6.5      260     60.9     61.4     60.1       42     1016     0.00      329     13.2
    12/17/2014 13:30      1.7      234      5.6      187     60.5     61.5     59.8       42     1016     0.00      315     13.3
    12/17/2014 13:45      3.9      197      8.1      202     60.4     61.3     59.7       47     1016     0.00      199     13.3
    12/17/2014 14:00      4.0      194      7.5      196     59.5     59.9     59.0       50     1016     0.00      120     13.3
    12/17/2014 14:15      3.1      208      6.6      193     59.2     59.5     58.9       49     1016     0.00      129     13.3
    12/17/2014 14:30      3.8      207     11.7      182     59.3     59.7     58.7       53     1016     0.00      107     13.3
    12/17/2014 14:45      7.1      189     12.3      197     58.3     58.8     57.8       56     1016     0.00       85     13.3
    12/17/2014 15:00      6.2      185      9.9      173     57.8     58.2     57.5       57     1016     0.00       61     13.3
    12/17/2014 15:15      4.3      216     11.1      183     57.9     58.1     57.6       54     1016     0.00       52     13.4
    12/17/2014 15:30      4.6      250     11.8      257     57.7     58.0     57.4       52     1016     0.00       67     13.4
    12/17/2014 15:45      4.7      255     11.4      259     57.2     57.6     56.9       53     1016     0.00       55     13.4
    12/17/2014 16:00      4.2      245      8.2      255     56.9     57.2     56.8       51     1016     0.00       59     13.4
    12/17/2014 16:15      3.9      255      7.5      250     56.8     57.0     56.5       53     1016     0.00       34     13.4
    12/17/2014 16:30      4.0      251      9.1      250     56.5     56.7     56.3       55     1017     0.00        9     13.4
    12/17/2014 16:45      3.2      258      6.4      256     56.4     56.5     56.1       56     1017     0.00        4     13.4
    12/17/2014 17:00      2.8      245      6.2      252     56.2     56.4     55.9       55     1017     0.00        1     13.4
    12/17/2014 17:15      3.1      257      8.2      250     56.1     56.4     55.9       55     1017     0.00        0     13.4
    12/17/2014 17:30      1.0      282      4.0      290     55.9     56.3     55.6       57     1017     0.00        0     13.4
    12/17/2014 17:45      0.0      287      1.0      284     55.4     55.8     55.1       58     1017     0.00        0     13.4
    12/17/2014 18:00      0.3      359      1.9      350     55.1     55.3     54.8       59     1017     0.00        0     13.4
    12/17/2014 18:15      0.0      272      0.6      352     55.0     55.5     54.4       62     1017     0.00        0     13.4
    12/17/2014 18:30      0.2      260      1.5      249     54.3     54.7     53.9       63     1017     0.00        0     13.4
    12/17/2014 18:45      0.0      258      1.6      239     53.8     54.2     53.4       63     1017     0.00        0     13.5
    12/17/2014 19:00      0.5      307      2.1      332     53.5     53.8     53.1       64     1017     0.00        0     13.5
    12/17/2014 19:15      0.1      297      0.8      302     53.5     53.9     52.8       66     1017     0.00        0     13.5
    12/17/2014 19:30      0.0      326      0.3      319     52.6     53.1     52.0       69     1017     0.00        0     13.5
    12/17/2014 19:45      0.1      338      2.0      342     51.9     52.2     51.7       70     1017     0.00        0     13.5
    12/17/2014 20:00      0.8      341      2.5      345     51.6     51.9     51.3       70     1017     0.00        0     13.5
    12/17/2014 20:15      0.5      340      2.2      334     51.6     52.0     51.1       71     1018     0.00        0     13.5
    12/17/2014 20:30      0.0        0      0.0      333     50.1     51.1     49.6       75     1018     0.00        0     13.5
    12/17/2014 20:45      0.7      253      3.7      246     49.2     49.8     48.8       78     1018     0.00        0     13.6
    12/17/2014 21:00      0.6      289      2.5      309     49.2     49.4     48.9       77     1018     0.00        0     13.6
    12/17/2014 21:15      0.3      336      1.5      341     49.1     49.4     48.6       77     1018     0.00        0     13.6
    12/17/2014 21:30      0.8      333      1.9      347     48.5     48.8     48.3       80     1018     0.00        0     13.6
    12/17/2014 21:45      0.2      115      1.2      133     47.8     48.5     47.0       81     1018     0.00        0     13.6
    12/17/2014 22:00      0.0      133      0.5      133     47.0     47.2     46.8       83     1018     0.00        0     13.6
    12/17/2014 22:15      0.8       78      2.5       66     47.1     47.5     46.8       83     1018     0.00        0     13.6
    12/17/2014 22:30      0.8       32      2.6       69     47.6     48.0     47.3       80     1018     0.00        0     13.6
    12/17/2014 22:45      0.1       27      1.4       30     47.3     48.0     46.9       82     1018     0.00        0     13.6
    12/17/2014 23:00      0.2      333      1.1      330     46.7     47.1     46.3       83     1018     0.00        0     13.6
    12/17/2014 23:15      0.8       32      2.1       19     46.5     47.0     46.0       83     1018     0.00        0     13.6
    12/17/2014 23:30      1.2       37      2.7       30     46.3     46.7     46.0       82     1018     0.00        0     13.6
    12/17/2014 23:45      1.4        5      4.1       16     46.8     47.5     46.4       77     1018     0.00        0     13.6
    12/18/2014 00:00      0.6       16      3.2       18     47.5     47.8     47.0       75     1018     0.00        0     13.6
    12/18/2014 00:15      0.1      304      1.8        8     46.2     47.1     45.5       80     1018     0.00        0     13.6
    12/18/2014 00:30      0.7      289      1.9      282     45.5     45.8     45.2       82     1018     0.00        0     13.6
    12/18/2014 00:45      0.5      136      1.7      342     45.7     46.0     45.3       81     1018     0.00        0     13.6
    12/18/2014 01:00      0.2      263      1.7      161     45.3     45.6     44.9       82     1018     0.00        0     13.6
    12/18/2014 01:15      0.2      197      1.4      211     44.8     45.0     44.5       83     1018     0.00        0     13.6
    12/18/2014 01:30      0.4      333      1.6      331     45.1     45.3     44.8       84     1019     0.00        0     13.6
    12/18/2014 01:45      0.8      334      2.6      330     45.2     45.4     44.9       83     1019     0.00        0     13.6
    12/18/2014 02:00      0.3      349      1.4      346     45.1     45.4     44.6       83     1019     0.00        0     13.6
    12/18/2014 02:15      0.6       38      2.5       42     45.1     45.5     44.6       83     1019     0.00        0     13.6
    12/18/2014 02:30      0.8       76      2.6      148     45.4     45.7     45.0       81     1019     0.00        0     13.6
    12/18/2014 02:45      0.2       19      2.5       26     45.2     45.5     44.9       79     1019     0.00        0     13.6
    12/18/2014 03:00      0.0      263      0.6      263     44.9     45.2     44.4       81     1019     0.00        0     13.6
    12/18/2014 03:15      0.0      267      0.1      267     44.3     44.6     44.0       83     1019     0.00        0     13.6
    12/18/2014 03:30      0.0      292      0.6      288     44.0     44.3     43.8       84     1019     0.00        0     13.6
    12/18/2014 03:45      1.0      320      2.0      312     44.0     44.1     43.8       85     1019     0.00        0     13.6
    12/18/2014 04:00      0.3      345      1.2      346     44.0     44.3     43.7       85     1019     0.00        0     13.6
    12/18/2014 04:15      0.1      324      0.8      341     43.6     44.1     43.2       85     1019     0.00        0     13.6
    12/18/2014 04:30      0.2      346      1.3      346     43.2     43.4     43.0       86     1019     0.00        0     13.7
    12/18/2014 04:45      0.2       56      1.2       81     42.8     43.4     42.4       86     1019     0.00        0     13.7
    12/18/2014 05:00      0.2       19      1.5      348     43.2     43.7     42.6       86     1019     0.00        0     13.7
    12/18/2014 05:15      0.1      333      1.0      328     43.6     43.8     43.4       86     1019     0.00        0     13.6
    12/18/2014 05:30      0.9       53      3.2       39     43.8     44.8     43.5       86     1019     0.00        0     13.6
    12/18/2014 05:45      0.6       52      3.3       55     45.3     45.6     44.7       82     1019     0.00        0     13.6
    12/18/2014 06:00      0.4      336      1.7      341     45.3     45.7     45.1       82     1019     0.00        0     13.6
    12/18/2014 06:15      0.0      233      0.9      229     45.1     45.5     44.6       83     1020     0.00        0     13.6
    12/18/2014 06:30      0.6       46      1.9       56     44.8     45.2     44.6       83     1020     0.00        0     13.6
    12/18/2014 06:45      0.2      251      2.1      247     44.9     45.3     44.5       84     1020     0.00        0     13.6
    12/18/2014 07:00      0.5      285      1.8      256     44.7     44.9     44.5       85     1020     0.00        3     13.6
    12/18/2014 07:15      0.0      316      0.5       29     44.7     45.1     44.6       85     1020     0.00        9     13.6
    12/18/2014 07:30      0.3       42      1.7       41     45.0     45.5     44.6       85     1020     0.00       24     13.6
    12/18/2014 07:45      0.2      261      1.1      257     45.9     46.3     45.3       85     1020     0.00       39     13.6
    12/18/2014 08:00      0.0       51      1.6       60     46.6     47.1     46.1       84     1020     0.00       44     13.6
    12/18/2014 08:15      0.5       37      2.3       67     47.9     48.6     47.0       81     1020     0.00       46     13.6
    12/18/2014 08:30      0.0        0      0.0      229     48.6     49.1     48.2       79     1021     0.00       86     13.6
    12/18/2014 08:45      0.3      168      1.3      168     49.8     50.5     49.0       75     1021     0.00      128     13.5
    12/18/2014 09:00      0.5      142      1.4      156     50.8     51.3     50.4       70     1021     0.00      132     13.5
    12/18/2014 09:15      0.6      148      2.2      150     51.5     52.1     51.0       69     1021     0.00      152     13.5
    12/18/2014 09:30      0.1      186      1.1      147     52.4     52.8     51.8       67     1021     0.00      188     13.5
    12/18/2014 09:45      0.5      159      2.7      173     53.0     53.4     52.7       67     1021     0.00      187     13.4
    12/18/2014 10:00      1.7      217      3.7      212     54.0     54.9     53.1       62     1022     0.00      358     13.4
    12/18/2014 10:15      0.5      274      2.6      256     53.9     54.4     53.6       62     1022     0.00      205     13.4
    12/18/2014 10:30      0.4      223      2.5      251     55.8     56.7     54.2       57     1021     0.00      361     13.4
    12/18/2014 10:45      0.9      193      3.2      153     57.0     57.3     56.7       54     1021     0.00      393     13.3
    12/18/2014 11:00      2.8      183      6.8      194     56.9     57.1     56.5       56     1021     0.00      351     13.3
    12/18/2014 11:15      2.1      153      6.4      156     57.2     57.9     56.7       55     1021     0.00      307     13.3
    12/18/2014 11:30      2.2      157      4.9      200     57.5     58.0     56.8       56     1021     0.00      328     13.3
    12/18/2014 11:45      1.1      143      3.2      157     57.5     58.1     57.0       57     1020     0.00      331     13.3
    12/18/2014 12:00      1.1      295      3.9       44     57.9     58.3     57.6       55     1020     0.00      357     13.3
    12/18/2014 12:15      2.0      179      4.6      159     58.5     59.1     58.0       54     1020     0.00      381     13.3
    12/18/2014 12:30      2.4      169      5.5      136     58.6     59.0     58.2       53     1020     0.00      349     13.3
    12/18/2014 12:45      1.1      161      4.4      133     58.8     59.2     58.4       52     1020     0.00      314     13.3
    12/18/2014 13:00      2.0      142      4.8      193     59.2     59.7     58.9       50     1019     0.00      326     13.3
    12/18/2014 13:15      1.2      223      3.4      182     59.6     60.0     59.1       49     1019     0.00      308     13.3
    12/18/2014 13:30      0.7      247      4.0      348     59.8     60.6     59.3       49     1019     0.00      314     13.3
    12/18/2014 13:45      1.0      135      3.2       87     59.9     60.3     59.5       48     1019     0.00      216     13.3
    12/18/2014 14:00      0.9       96      3.1       85     59.7     60.1     59.3       50     1019     0.00      167     13.3
    12/18/2014 14:15      0.5       58      2.6       72     59.5     59.8     59.2       50     1019     0.00      138     13.3
    12/18/2014 14:30      0.2      166      1.6       74     60.5     61.6     59.5       48     1019     0.00      215     13.3
    12/18/2014 14:45      0.9      201      5.3      185     61.1     61.8     60.4       51     1019     0.00      214     13.3
    12/18/2014 15:00      0.8      223      2.4      219     61.2     61.7     60.8       49     1019     0.00      224     13.3
    12/18/2014 15:15      1.4      217      3.5      252     61.5     61.7     61.0       49     1019     0.00      234     13.3
    12/18/2014 15:30      1.2      152      3.2      157     60.9     61.4     60.6       47     1019     0.00      168     13.3
    12/18/2014 15:45      0.7      167      3.7      167     61.4     61.9     60.6       50     1019     0.00       94     13.3
    12/18/2014 16:00      2.7      189      4.8      192     59.4     60.6     58.5       55     1019     0.00       48     13.3
    12/18/2014 16:15      2.6      200      4.7      207     58.5     58.8     58.4       57     1019     0.00       55     13.3
    12/18/2014 16:30      1.0      212      4.0      188     58.6     58.9     58.4       58     1020     0.00       39     13.3
    12/18/2014 16:45      2.0      199      4.3      186     58.4     58.8     58.1       58     1020     0.00       13     13.4
    12/18/2014 17:00      0.6      213      3.4      198     57.6     58.2     57.0       62     1020     0.00        3     13.4
    12/18/2014 17:15      0.6      180      2.9      172     56.5     57.2     56.0       66     1020     0.00        0     13.4
    12/18/2014 17:30      0.0      169      1.0      170     55.8     56.2     55.4       70     1020     0.00        0     13.4
    12/18/2014 17:45      0.0        0      0.0      106     55.5     55.7     55.2       71     1020     0.00        0     13.4
    12/18/2014 18:00      0.0        0      0.0      105     55.1     55.5     54.7       72     1020     0.00        0     13.4
    12/18/2014 18:15      0.0        0      0.0      338     54.4     54.9     53.6       74     1020     0.00        0     13.5
    12/18/2014 18:30      0.0        0      0.0      341     53.4     53.8     53.1       77     1021     0.00        0     13.5
    12/18/2014 18:45      0.0        0      0.0       59     53.0     53.3     52.7       78     1021     0.00        0     13.5
    12/18/2014 19:00      0.0        0      0.0      316     52.8     53.1     52.4       78     1021     0.00        0     13.5
    12/18/2014 19:15      0.0        0      0.0      305     52.1     52.5     51.8       81     1021     0.00        0     13.5
    12/18/2014 19:30      0.1      319      0.7      312     52.3     52.7     51.9       81     1021     0.00        0     13.5
    12/18/2014 19:45      0.2      326      0.9      318     52.3     52.5     51.9       81     1021     0.00        0     13.5
    12/18/2014 20:00      0.6      342      2.3      353     51.7     52.1     51.4       79     1021     0.00        0     13.5
    12/18/2014 20:15      0.3       35      1.4       27     51.2     51.7     50.9       80     1021     0.00        0     13.5
    12/18/2014 20:30      0.7       35      2.6       48     51.0     51.5     50.8       78     1021     0.00        0     13.5
    12/18/2014 20:45      1.0       46      2.6       67     51.0     51.4     50.4       79     1021     0.00        0     13.5
    12/18/2014 21:00      1.6       19      3.7      351     50.3     50.8     50.0       79     1021     0.00        0     13.5
    12/18/2014 21:15      2.7      359      5.6      340     51.1     51.7     50.6       77     1021     0.00        0     13.5
    12/18/2014 21:30      1.3      208      3.6      197     51.1     52.1     49.7       78     1022     0.00        0     13.5
    12/18/2014 21:45      0.6      220      2.3      223     49.6     49.9     49.1       82     1022     0.00        0     13.5
    12/18/2014 22:00      0.2      317      1.6      337     49.2     49.5     48.7       84     1022     0.00        0     13.6
    12/18/2014 22:15      0.0      278      0.7      279     48.5     49.0     48.0       85     1022     0.00        0     13.6
    12/18/2014 22:30      0.2      208      1.3      206     47.9     48.1     47.7       86     1022     0.00        0     13.6
    12/18/2014 22:45      0.0        0      0.0      207     48.1     48.4     47.9       87     1022     0.00        0     13.6
    12/18/2014 23:00      0.1       45      1.0       79     47.8     48.5     47.3       86     1022     0.00        0     13.6
    12/18/2014 23:15      0.4       62      2.2       34     47.5     47.8     46.9       86     1022     0.00        0     13.6
    12/18/2014 23:30      0.4       21      2.1       32     47.1     47.5     46.8       88     1022     0.00        0     13.6
    12/18/2014 23:45      0.1      357      2.0        1     47.5     47.9     47.2       87     1022     0.00        0     13.6
    12/19/2014 00:00      1.0      340      2.3      346     47.5     47.9     46.9       86     1022     0.00        0     13.6
    12/19/2014 00:15      0.5      341      1.7      345     46.8     47.3     45.9       86     1022     0.00        0     13.6
    12/19/2014 00:30      0.0        0      0.0      301     45.9     46.1     45.6       87     1022     0.00        0     13.6
    12/19/2014 00:45      0.0      255      0.8      255     45.8     46.0     45.5       88     1022     0.00        0     13.6
    12/19/2014 01:00      0.0        0      0.0      294     45.8     46.3     45.3       88     1022     0.00        0     13.6
    12/19/2014 01:15      0.9       44      4.3       35     45.6     46.3     45.2       89     1022     0.00        0     13.6
    12/19/2014 01:30      2.1       34      5.0       32     46.7     47.1     46.0       87     1022     0.00        0     13.6
    12/19/2014 01:45      0.0       38      0.8       35     45.7     46.1     45.2       87     1021     0.00        0     13.6
    12/19/2014 02:00      0.0        0      0.0      290     45.0     45.4     44.7       88     1021     0.00        0     13.6
    12/19/2014 02:15      0.1      273      0.7      276     45.1     45.3     44.7       88     1021     0.00        0     13.6
    12/19/2014 02:30      0.4      267      1.4      263     44.7     44.9     44.4       89     1021     0.00        0     13.6
    12/19/2014 02:45      0.5      298      1.7      294     44.7     44.9     44.5       89     1021     0.00        0     13.6
    12/19/2014 03:00      0.3      340      1.2      345     44.9     45.0     44.6       89     1021     0.00        0     13.6
    12/19/2014 03:15      0.2      343      1.3      338     44.9     45.2     44.6       89     1021     0.00        0     13.6
    12/19/2014 03:30      0.0        0      0.0      348     44.7     45.0     44.3       89     1021     0.00        0     13.6
    12/19/2014 03:45      0.1       52      0.9       57     44.5     44.9     44.2       89     1021     0.00        0     13.6
    12/19/2014 04:00      0.5       39      2.6       40     44.8     45.2     44.4       89     1021     0.00        0     13.6
    12/19/2014 04:15      0.5      257      2.1      252     44.4     44.8     44.1       89     1021     0.00        0     13.6
    12/19/2014 04:30      1.3      260      3.2      260     44.7     45.0     44.4       89     1021     0.00        0     13.6
    12/19/2014 04:45      0.1      326      1.3      330     44.6     44.8     44.3       89     1021     0.00        0     13.6
    12/19/2014 05:00      0.3      287      1.5      269     44.1     44.6     43.9       89     1022     0.00        0     13.6
    12/19/2014 05:15      0.5      339      1.4      339     44.1     44.6     43.7       90     1022     0.00        0     13.6
    12/19/2014 05:30      0.2       33      1.4       55     44.1     44.6     43.8       90     1022     0.00        0     13.6
    12/19/2014 05:45      1.7       26      3.8       29     45.2     45.9     44.0       90     1022     0.00        0     13.6
    12/19/2014 06:00      0.5      354      2.1       39     44.8     45.5     44.5       89     1022     0.00        0     13.6